Time;durP1;ratioP1;P1;durP2;ratioP2;P2;SDS_P1;SDS_P2;PMS_P1;PMS_P2;Temp;Humidity;BMP_temperature;BMP_pressure;BME280_temperature;BME280_humidity;BME280_pressure;Samples;Min_cycle;Max_cycle;Signal;HPM_P1;HPM_P2
2022/01/13 00:02:23;;;;;;;3.63;1.92;;;;;;;-5.28;86.80;96307.25;5061869;28;20048;-49
2022/01/13 00:04:50;;;;;;;8.88;2.40;;;;;;;-5.22;87.13;96317.84;5066210;28;20094;-49
2022/01/13 00:07:17;;;;;;;3.65;1.95;;;;;;;-5.19;87.12;96312.56;5063611;28;20045;-48
2022/01/13 00:09:44;;;;;;;5.88;2.35;;;;;;;-5.15;87.25;96317.44;5063628;28;20914;-48
2022/01/13 00:12:13;;;;;;;5.00;2.67;;;;;;;-5.21;87.39;96304.22;5064362;28;20053;-48
2022/01/13 00:15:06;;;;;;;2.72;1.48;;;;;;;-5.16;87.61;96315.84;5063876;28;20506;-52
2022/01/13 00:17:46;;;;;;;2.65;1.70;;;;;;;-5.19;87.84;96321.91;5064763;28;20518;-47
2022/01/13 00:25:54;;;;;;;2.00;1.02;;;;;;;-5.10;89.46;96326.41;5066558;28;20060;-48
2022/01/13 00:28:22;;;;;;;11.50;2.95;;;;;;;-5.04;89.34;96320.13;5063033;28;20119;-48
2022/01/13 00:30:53;;;;;;;3.55;2.25;;;;;;;-4.97;89.32;96335.78;5066030;28;20510;-47
2022/01/13 00:33:24;;;;;;;3.47;2.08;;;;;;;-5.00;89.02;96324.09;5062570;28;20048;-47
2022/01/13 00:35:59;;;;;;;5.10;2.28;;;;;;;-4.81;88.84;96337.28;5064540;28;20131;-48
2022/01/13 00:38:28;;;;;;;1.67;1.45;;;;;;;-4.77;88.89;96335.34;5064513;28;20502;-48
2022/01/13 00:40:55;;;;;;;4.15;1.77;;;;;;;-4.80;89.12;96333.78;5065477;28;20064;-47
2022/01/13 00:43:22;;;;;;;2.53;1.73;;;;;;;-4.78;89.49;96335.44;5063461;28;20273;-48
2022/01/13 00:45:49;;;;;;;3.78;1.55;;;;;;;-4.74;89.89;96341.94;5061608;28;20049;-47
2022/01/13 00:48:17;;;;;;;1.48;1.38;;;;;;;-4.63;90.05;96352.22;5069574;28;20056;-49
2022/01/13 00:50:44;;;;;;;3.85;2.03;;;;;;;-4.57;90.11;96343.38;5062410;28;20049;-47
2022/01/13 00:53:11;;;;;;;3.13;1.27;;;;;;;-4.52;90.10;96342.19;5064012;28;20516;-49
2022/01/13 00:56:12;;;;;;;2.90;1.70;;;;;;;-4.47;90.38;96350.31;5066001;28;20043;-47
2022/01/13 00:58:34;;;;;;;7.75;3.15;;;;;;;-4.43;90.48;96356.84;5061269;28;20067;-49
2022/01/13 01:01:03;;;;;;;7.97;2.65;;;;;;;-4.39;90.49;96356.63;5068300;28;20044;-48
2022/01/13 01:03:31;;;;;;;1.42;1.33;;;;;;;-4.36;90.12;96356.44;5064852;28;20044;-47
2022/01/13 01:06:00;;;;;;;3.90;1.60;;;;;;;-4.30;89.93;96363.66;5062057;28;20040;-47
2022/01/13 01:08:27;;;;;;;13.18;2.75;;;;;;;-4.24;89.96;96365.78;5065402;28;20072;-48
2022/01/13 01:10:56;;;;;;;5.35;2.28;;;;;;;-4.18;89.33;96369.66;5062867;28;20559;-47
2022/01/13 01:13:27;;;;;;;6.68;3.42;;;;;;;-4.12;89.03;96370.06;5062614;28;20056;-50
2022/01/13 01:15:57;;;;;;;5.15;2.70;;;;;;;-4.06;89.21;96369.66;5061802;28;20071;-49
2022/01/13 01:28:54;;;;;;;37.20;16.40;;;;;;;-4.07;90.45;96375.69;5065381;28;20051;-51
2022/01/13 01:31:27;;;;;;;11.18;6.63;;;;;;;-4.08;89.71;96374.03;5068389;28;20520;-49
2022/01/13 01:36:28;;;;;;;9.38;3.90;;;;;;;-4.16;89.25;96373.75;5061715;28;20060;-48
2022/01/13 01:38:56;;;;;;;6.43;2.95;;;;;;;-4.15;89.41;96372.81;5062100;28;20290;-47
2022/01/13 01:41:23;;;;;;;6.22;3.47;;;;;;;-4.14;88.82;96366.81;5062789;28;20047;-47
2022/01/13 01:43:52;;;;;;;10.07;5.65;;;;;;;-4.12;88.50;96375.16;5068169;28;20429;-51
2022/01/13 01:46:19;;;;;;;4.65;2.75;;;;;;;-4.10;88.16;96368.25;5060946;28;20055;-52
2022/01/13 01:48:46;;;;;;;3.88;2.67;;;;;;;-4.07;87.17;96372.31;5062498;28;20453;-47
2022/01/13 01:51:13;;;;;;;6.45;3.13;;;;;;;-4.08;86.33;96361.31;5061737;28;20136;-48
2022/01/13 01:53:39;;;;;;;6.97;3.08;;;;;;;-4.06;86.06;96369.66;5063009;28;20044;-47
2022/01/13 01:56:07;;;;;;;9.18;4.43;;;;;;;-4.01;86.02;96361.72;5063019;28;20071;-47
2022/01/13 01:58:35;;;;;;;9.25;4.88;;;;;;;-4.00;86.08;96357.44;5067977;28;20086;-49
2022/01/13 02:01:02;;;;;;;7.32;3.42;;;;;;;-3.97;84.65;96357.25;5067869;28;20048;-48
2022/01/13 02:03:30;;;;;;;8.13;4.03;;;;;;;-3.95;84.98;96350.31;5066030;28;20509;-50
2022/01/13 02:05:57;;;;;;;6.18;3.55;;;;;;;-3.92;84.63;96345.03;5066729;28;20028;-48
2022/01/13 02:08:24;;;;;;;10.88;4.45;;;;;;;-3.93;84.08;96341.66;5065745;28;20062;-47
2022/01/13 02:10:51;;;;;;;5.43;2.55;;;;;;;-3.93;82.67;96343.38;5065403;28;20411;-48
2022/01/13 02:13:22;;;;;;;4.57;3.05;;;;;;;-3.93;82.54;96333.19;5066530;28;20047;-49
2022/01/13 02:16:05;;;;;;;4.43;2.38;;;;;;;-3.93;83.42;96333.19;5065147;28;20719;-52
2022/01/13 02:18:33;;;;;;;8.80;4.60;;;;;;;-3.95;84.50;96345.22;5065693;28;20152;-49
2022/01/13 02:21:01;;;;;;;7.90;3.47;;;;;;;-3.98;85.21;96340.31;5071090;28;20131;-49
2022/01/13 02:23:29;;;;;;;2.45;2.05;;;;;;;-4.06;85.59;96334.03;5069240;28;20074;-48
2022/01/13 02:25:56;;;;;;;7.78;3.20;;;;;;;-4.01;86.33;96335.47;5064698;28;20101;-49
2022/01/13 02:28:23;;;;;;;9.07;4.03;;;;;;;-4.05;87.14;96345.84;5066096;28;20036;-47
2022/01/13 02:30:51;;;;;;;7.32;2.97;;;;;;;-4.15;87.02;96334.66;5065578;28;20048;-49
2022/01/13 02:33:18;;;;;;;2.40;0.90;;;;;;;-4.23;85.98;96339.44;5065292;28;20047;-47
2022/01/13 02:35:45;;;;;;;9.82;4.32;;;;;;;-4.17;86.69;96348.41;5065238;28;20032;-49
2022/01/13 02:38:12;;;;;;;2.25;1.20;;;;;;;-4.25;87.55;96343.81;5070248;28;20114;-50
2022/01/13 02:40:40;;;;;;;8.23;2.42;;;;;;;-4.18;87.79;96354.41;5065843;28;20058;-48
2022/01/13 02:43:08;;;;;;;4.88;2.85;;;;;;;-4.17;87.28;96356.03;5065052;28;20151;-48
2022/01/13 02:45:39;;;;;;;3.13;2.83;;;;;;;-4.43;86.72;96328.03;5064456;28;20037;-47
2022/01/13 02:48:27;;;;;;;8.43;3.63;;;;;;;-4.26;87.15;96358.25;5066798;28;20051;-47
2022/01/13 02:50:54;;;;;;;2.08;1.88;;;;;;;-4.28;87.48;96354.22;5064586;28;20059;-50
2022/01/13 02:53:22;;;;;;;13.90;3.88;;;;;;;-4.27;87.45;96350.72;5065573;28;20045;-47
2022/01/13 02:55:51;;;;;;;2.22;1.67;;;;;;;-4.26;86.57;96352.38;5073254;28;20061;-49
2022/01/13 02:58:17;;;;;;;4.20;2.33;;;;;;;-4.24;86.06;96345.44;5063985;28;20049;-46
2022/01/13 03:00:44;;;;;;;6.80;3.63;;;;;;;-4.23;86.00;96342.00;5066271;28;20422;-48
2022/01/13 03:03:12;;;;;;;3.40;1.80;;;;;;;-4.27;84.70;96348.19;5070203;28;20115;-48
2022/01/13 03:05:40;;;;;;;14.98;7.35;;;;;;;-4.28;88.81;96344.84;5065179;28;20132;-50
2022/01/13 03:08:08;;;;;;;6.93;3.03;;;;;;;-4.29;88.81;96342.38;5064860;28;20047;-47
2022/01/13 03:10:35;;;;;;;6.85;3.03;;;;;;;-4.23;87.03;96347.09;5064685;28;20064;-48
2022/01/13 03:13:03;;;;;;;6.75;3.92;;;;;;;-4.23;86.34;96342.00;5064810;28;20057;-49
2022/01/13 03:15:30;;;;;;;16.15;7.30;;;;;;;-4.23;88.24;96334.38;5070979;28;20040;-48
2022/01/13 03:17:57;;;;;;;13.02;5.68;;;;;;;-4.31;89.56;96334.03;5064422;28;20048;-48
2022/01/13 03:20:25;;;;;;;3.65;1.55;;;;;;;-4.30;86.46;96340.78;5068031;28;20434;-47
2022/01/13 03:22:52;;;;;;;2.28;1.48;;;;;;;-4.26;85.52;96334.56;5064156;28;20040;-47
2022/01/13 03:25:23;;;;;;;8.27;3.47;;;;;;;-4.21;85.30;96345.25;5065144;28;20052;-47
2022/01/13 03:27:58;;;;;;;6.20;3.33;;;;;;;-4.20;84.70;96351.16;5065348;28;20718;-50
2022/01/13 03:30:24;;;;;;;2.23;1.40;;;;;;;-4.22;84.67;96341.06;5064663;28;20045;-47
2022/01/13 03:32:51;;;;;;;5.78;2.42;;;;;;;-4.25;85.08;96348.88;5064770;28;20409;-47
2022/01/13 03:35:18;;;;;;;1.88;1.17;;;;;;;-4.28;85.20;96346.56;5064484;28;20033;-47
2022/01/13 03:37:45;;;;;;;3.13;0.98;;;;;;;-4.32;85.61;96348.50;5069213;28;20052;-48
2022/01/13 03:40:12;;;;;;;4.35;2.72;;;;;;;-4.34;85.50;96350.34;5064510;28;20053;-50
2022/01/13 03:42:40;;;;;;;10.07;4.18;;;;;;;-4.29;85.61;96348.28;5064338;28;20040;-51
2022/01/13 03:45:07;;;;;;;5.38;2.05;;;;;;;-4.29;85.19;96353.38;5063343;28;20036;-51
2022/01/13 03:47:35;;;;;;;8.32;3.00;;;;;;;-4.38;85.11;96348.09;5065003;28;20044;-48
2022/01/13 03:50:03;;;;;;;5.30;2.75;;;;;;;-4.35;85.33;96360.63;5065418;28;20048;-48
2022/01/13 03:52:30;;;;;;;4.03;2.30;;;;;;;-4.36;84.98;96356.44;5064571;28;20044;-49
2022/01/13 03:55:34;;;;;;;4.25;2.38;;;;;;;-4.34;85.35;96357.13;5067921;28;20406;-48
2022/01/13 03:58:25;;;;;;;4.72;2.17;;;;;;;-4.37;85.58;96352.28;5062985;28;20043;-47
2022/01/13 04:01:23;;;;;;;5.43;2.55;;;;;;;-4.40;85.40;96350.72;5066491;28;20028;-49
2022/01/13 04:03:50;;;;;;;12.25;3.55;;;;;;;-4.49;85.93;96341.16;5063573;28;20044;-47
2022/01/13 04:06:17;;;;;;;8.43;3.95;;;;;;;-4.46;86.68;96357.03;5063297;28;20044;-50
2022/01/13 04:08:49;;;;;;;12.00;4.00;;;;;;;-4.49;85.90;96362.31;5062829;28;20120;-47
2022/01/13 04:11:26;;;;;;;6.03;2.90;;;;;;;-4.52;86.18;96357.44;5062786;28;20055;-49
2022/01/13 04:13:58;;;;;;;7.28;3.33;;;;;;;-4.51;86.28;96369.22;5063767;28;20048;-47
2022/01/13 04:16:34;;;;;;;6.95;3.22;;;;;;;-4.52;86.25;96375.25;5062809;28;20690;-47
2022/01/13 04:19:05;;;;;;;6.38;2.35;;;;;;;-4.55;85.72;96385.63;5063288;28;20113;-48
2022/01/13 04:21:38;;;;;;;6.90;2.80;;;;;;;-4.50;85.80;96386.13;5062400;28;20048;-47
2022/01/13 04:24:11;;;;;;;2.53;1.98;;;;;;;-4.52;85.05;96384.59;5062756;28;20139;-49
2022/01/13 04:26:41;;;;;;;3.55;2.28;;;;;;;-4.52;84.79;96385.41;5069058;28;20083;-48
2022/01/13 04:31:49;;;;;;;2.40;1.98;;;;;;;-4.51;84.49;96389.56;5062274;28;20524;-48
2022/01/13 04:34:17;;;;;;;6.95;3.00;;;;;;;-4.48;84.71;96399.56;5061536;28;20127;-47
2022/01/13 04:36:45;;;;;;;8.60;4.28;;;;;;;-4.42;84.81;96406.78;5061374;28;20040;-47
2022/01/13 04:39:16;;;;;;;2.63;2.40;;;;;;;-4.43;83.62;96397.53;5063382;28;20044;-47
2022/01/13 04:41:46;;;;;;;2.33;1.30;;;;;;;-4.46;82.83;96397.72;5063439;28;20058;-48
2022/01/13 04:44:16;;;;;;;4.35;2.25;;;;;;;-4.53;82.16;96396.50;5062901;28;20044;-47
2022/01/13 04:46:44;;;;;;;5.03;3.17;;;;;;;-4.58;81.86;96395.16;5066345;28;21247;-47
2022/01/13 04:49:11;;;;;;;6.10;1.67;;;;;;;-4.60;81.88;96395.25;5062268;28;20342;-47
2022/01/13 04:51:40;;;;;;;4.30;3.63;;;;;;;-4.58;82.42;96398.50;5066841;28;20046;-49
2022/01/13 04:54:08;;;;;;;11.15;4.85;;;;;;;-4.58;82.90;96388.34;5067287;28;20048;-49
2022/01/13 04:56:42;;;;;;;6.38;2.47;;;;;;;-4.55;82.25;96390.69;5064955;28;20036;-49
2022/01/13 04:59:09;;;;;;;6.22;1.73;;;;;;;-4.67;81.86;96374.50;5065344;28;20041;-47
2022/01/13 05:01:38;;;;;;;5.63;3.53;;;;;;;-4.55;81.86;96388.16;5064999;28;20515;-49
2022/01/13 05:04:06;;;;;;;4.55;3.42;;;;;;;-4.56;81.10;96394.16;5063896;28;20040;-52
2022/01/13 05:06:33;;;;;;;4.13;3.22;;;;;;;-4.52;81.49;96387.97;5062901;28;20037;-50
2022/01/13 05:09:01;;;;;;;14.15;5.88;;;;;;;-4.51;81.99;96387.03;5062401;28;20191;-50
2022/01/13 05:11:28;;;;;;;4.65;4.20;;;;;;;-4.45;82.46;96404.47;5062241;28;20041;-49
2022/01/13 05:13:55;;;;;;;6.65;4.20;;;;;;;-4.47;80.87;96401.19;5065578;28;20054;-48
2022/01/13 05:16:23;;;;;;;4.53;3.33;;;;;;;-4.40;80.50;96406.69;5065273;28;20047;-47
2022/01/13 05:21:44;;;;;;;12.50;5.53;;;;;;;-4.39;81.27;96407.50;5062498;28;20120;-48
2022/01/13 05:24:11;;;;;;;17.83;8.68;;;;;;;-4.36;80.93;96417.47;5062379;28;20098;-51
2022/01/13 05:26:38;;;;;;;6.18;3.35;;;;;;;-4.44;81.02;96421.34;5068354;28;20047;-48
2022/01/13 05:29:05;;;;;;;8.25;4.63;;;;;;;-4.39;81.06;96422.75;5067597;28;20041;-47
2022/01/13 05:31:31;;;;;;;13.77;6.97;;;;;;;-4.40;83.82;96421.16;5065094;28;20051;-48
2022/01/13 05:33:58;;;;;;;15.30;7.85;;;;;;;-4.53;86.04;96424.47;5062814;28;20128;-48
2022/01/13 05:36:25;;;;;;;17.30;6.25;;;;;;;-4.59;87.70;96427.41;5069593;28;20036;-49
2022/01/13 05:38:52;;;;;;;19.98;8.60;;;;;;;-4.70;89.95;96429.81;5069372;28;20052;-47
2022/01/13 05:41:19;;;;;;;18.92;8.13;;;;;;;-4.76;90.81;96430.22;5069857;28;20067;-48
2022/01/13 05:43:45;;;;;;;13.35;7.43;;;;;;;-4.93;91.75;96419.38;5064794;28;20045;-47
2022/01/13 05:46:12;;;;;;;11.13;6.47;;;;;;;-5.01;92.11;96426.66;5066622;28;20040;-47
2022/01/13 05:48:39;;;;;;;14.35;6.68;;;;;;;-5.12;92.58;96434.13;5062914;28;20123;-48
2022/01/13 05:51:06;;;;;;;15.98;6.55;;;;;;;-5.12;93.26;96439.22;5060988;28;20044;-50
2022/01/13 05:53:33;;;;;;;16.52;8.20;;;;;;;-5.22;93.86;96431.31;5061725;28;20036;-49
2022/01/13 05:56:00;;;;;;;10.07;6.47;;;;;;;-5.33;94.15;96426.94;5061714;28;20029;-51
2022/01/13 05:58:31;;;;;;;9.15;6.57;;;;;;;-5.26;94.51;96440.88;5063139;28;20479;-48
2022/01/13 06:00:58;;;;;;;19.92;10.07;;;;;;;-5.38;94.21;96434.00;5062954;28;20097;-48
2022/01/13 06:03:25;;;;;;;21.17;7.78;;;;;;;-5.24;93.82;96450.94;5063274;28;20568;-48
2022/01/13 06:05:53;;;;;;;15.63;8.43;;;;;;;-5.20;94.08;96452.41;5067713;28;20040;-47
2022/01/13 06:08:20;;;;;;;14.95;8.30;;;;;;;-5.20;93.85;96452.41;5066129;28;20531;-48
2022/01/13 06:10:47;;;;;;;12.77;7.18;;;;;;;-5.28;94.04;96454.56;5062393;28;20490;-47
2022/01/13 06:13:14;;;;;;;20.48;7.28;;;;;;;-5.31;93.35;96449.66;5062332;28;20160;-50
2022/01/13 06:15:41;;;;;;;6.88;4.00;;;;;;;-5.46;94.36;96426.03;5062337;28;20491;-48
2022/01/13 06:18:13;;;;;;;17.92;7.28;;;;;;;-5.36;93.93;96451.69;5062332;28;20124;-47
2022/01/13 06:20:41;;;;;;;12.70;7.57;;;;;;;-5.31;93.33;96445.44;5067879;28;20510;-49
2022/01/13 06:23:08;;;;;;;9.75;6.95;;;;;;;-5.32;92.93;96453.94;5061959;28;20510;-48
2022/01/13 06:25:35;;;;;;;3.78;3.20;;;;;;;-5.34;92.48;96440.53;5067767;28;20077;-48
2022/01/13 06:28:04;;;;;;;12.55;6.45;;;;;;;-5.25;93.08;96462.81;5062861;28;20045;-49
2022/01/13 06:30:40;;;;;;;16.98;6.32;;;;;;;-5.27;93.18;96472.25;5060910;28;20045;-49
2022/01/13 06:33:07;;;;;;;7.55;4.07;;;;;;;-5.32;92.51;96469.19;5062505;28;20064;-50
2022/01/13 06:35:36;;;;;;;6.97;4.10;;;;;;;-5.30;92.44;96471.63;5065320;28;20037;-52
2022/01/13 06:38:03;;;;;;;7.72;4.93;;;;;;;-5.22;92.67;96469.44;5065488;28;20068;-49
2022/01/13 06:40:30;;;;;;;9.90;5.50;;;;;;;-5.25;92.19;96469.63;5061655;28;20033;-47
2022/01/13 06:42:57;;;;;;;7.30;4.97;;;;;;;-5.31;91.78;96486.06;5069883;28;20055;-48
2022/01/13 06:45:24;;;;;;;8.82;4.75;;;;;;;-5.32;90.67;96471.72;5069778;28;20041;-46
2022/01/13 06:47:51;;;;;;;8.38;4.75;;;;;;;-5.38;90.46;96484.81;5067748;28;20049;-47
2022/01/13 06:50:18;;;;;;;9.63;6.80;;;;;;;-5.45;89.66;96483.53;5065296;28;20048;-52
2022/01/13 06:52:47;;;;;;;3.60;2.67;;;;;;;-5.48;90.45;96483.72;5064194;28;20120;-49
2022/01/13 06:55:14;;;;;;;6.80;4.15;;;;;;;-5.54;89.09;96499.31;5066673;28;20146;-48
2022/01/13 06:57:41;;;;;;;10.50;6.85;;;;;;;-5.54;89.58;96499.31;5065008;28;20043;-50
2022/01/13 07:00:08;;;;;;;8.10;4.50;;;;;;;-5.57;89.06;96495.22;5064595;28;20048;-48
2022/01/13 07:02:36;;;;;;;6.50;4.40;;;;;;;-5.54;88.68;96504.41;5064380;28;20043;-48
2022/01/13 07:05:04;;;;;;;7.15;3.88;;;;;;;-5.51;89.36;96504.19;5066073;28;20587;-48
2022/01/13 07:07:36;;;;;;;9.25;3.28;;;;;;;-5.45;89.12;96503.84;5069912;28;20055;-47
2022/01/13 07:10:11;;;;;;;12.27;5.63;;;;;;;-5.58;88.27;96509.66;5065631;28;20036;-50
2022/01/13 07:12:39;;;;;;;4.75;3.95;;;;;;;-5.53;88.34;96513.63;5064283;28;20110;-48
2022/01/13 07:15:07;;;;;;;13.15;6.68;;;;;;;-5.49;88.25;96521.00;5064614;28;20518;-50
2022/01/13 07:17:34;;;;;;;13.50;6.05;;;;;;;-5.63;87.56;96511.63;5064817;28;20040;-47
2022/01/13 07:20:03;;;;;;;22.30;8.13;;;;;;;-5.62;87.29;96525.97;5064730;28;20082;-48
2022/01/13 07:22:31;;;;;;;5.70;3.33;;;;;;;-5.71;87.08;96518.06;5064511;28;20105;-47
2022/01/13 07:24:57;;;;;;;4.97;3.38;;;;;;;-5.69;87.78;96521.31;5063936;28;20044;-47
2022/01/13 07:27:24;;;;;;;11.10;4.97;;;;;;;-5.67;87.27;96540.66;5065147;28;20040;-51
2022/01/13 07:29:51;;;;;;;7.97;4.57;;;;;;;-5.83;87.03;96524.69;5064153;28;20082;-47
2022/01/13 07:32:18;;;;;;;16.52;7.88;;;;;;;-5.72;86.80;96522.31;5062623;28;20047;-49
2022/01/13 07:34:45;;;;;;;8.45;6.78;;;;;;;-5.88;86.26;96516.50;5065615;28;20041;-49
2022/01/13 07:37:14;;;;;;;6.85;4.25;;;;;;;-5.82;86.46;96536.44;5061732;28;20053;-47
2022/01/13 07:39:41;;;;;;;7.90;3.53;;;;;;;-5.82;86.70;96516.94;5061673;28;20032;-48
2022/01/13 07:42:09;;;;;;;4.90;3.33;;;;;;;-5.80;85.97;96524.47;5059259;28;20498;-48
2022/01/13 07:44:36;;;;;;;14.98;3.75;;;;;;;-5.74;85.92;96541.91;5060243;28;20040;-47
2022/01/13 07:47:03;;;;;;;9.70;4.82;;;;;;;-5.69;86.23;96547.53;5063899;28;20045;-47
2022/01/13 07:49:30;;;;;;;9.43;4.47;;;;;;;-5.76;85.77;96566.56;5061310;28;20120;-47
2022/01/13 07:51:57;;;;;;;10.40;4.93;;;;;;;-5.81;85.62;96559.19;5061288;28;20037;-47
2022/01/13 07:54:26;;;;;;;8.85;4.68;;;;;;;-5.82;85.31;96574.50;5056740;28;20052;-49
2022/01/13 07:56:59;;;;;;;4.80;2.53;;;;;;;-5.81;84.95;96566.00;5057851;28;20075;-54
2022/01/13 07:59:28;;;;;;;9.88;4.68;;;;;;;-5.87;85.44;96563.78;5061055;28;20040;-53
2022/01/13 08:01:59;;;;;;;10.55;5.80;;;;;;;-5.91;84.65;96582.66;5070467;28;20036;-48
2022/01/13 08:04:26;;;;;;;8.75;4.20;;;;;;;-5.90;84.50;96579.22;5063299;28;20063;-50
2022/01/13 08:06:53;;;;;;;15.05;7.10;;;;;;;-5.89;84.36;96575.75;5063945;28;20036;-53
2022/01/13 08:09:22;;;;;;;6.05;3.08;;;;;;;-5.82;84.97;96587.19;5063309;28;20044;-48
2022/01/13 08:11:50;;;;;;;7.65;3.13;;;;;;;-5.75;86.14;96588.47;5065271;28;20052;-52
2022/01/13 08:14:17;;;;;;;5.07;3.22;;;;;;;-5.64;85.17;96596.31;5062596;28;20053;-51
2022/01/13 08:16:44;;;;;;;2.42;1.65;;;;;;;-5.76;84.09;96592.75;5063631;28;20063;-50
2022/01/13 08:21:57;;;;;;;10.02;3.55;;;;;;;-5.80;83.53;96598.06;5062832;28;20124;-51
2022/01/13 08:24:24;;;;;;;10.05;5.32;;;;;;;-5.90;82.65;96589.38;5063242;28;20039;-48
2022/01/13 08:26:51;;;;;;;13.32;4.55;;;;;;;-5.72;83.30;96610.34;5062668;28;20485;-49
2022/01/13 08:29:18;;;;;;;5.35;3.80;;;;;;;-5.74;82.71;96623.13;5063217;28;20059;-50
2022/01/13 08:31:45;;;;;;;16.17;8.18;;;;;;;-5.87;82.31;96620.47;5063357;28;20036;-49
2022/01/13 08:34:14;;;;;;;6.85;4.28;;;;;;;-5.88;81.84;96602.78;5062837;28;20040;-49
2022/01/13 08:36:41;;;;;;;10.77;4.95;;;;;;;-5.79;81.59;96612.41;5060634;28;20115;-48
2022/01/13 08:39:09;;;;;;;19.95;7.80;;;;;;;-5.87;80.74;96589.19;5056502;28;20068;-49
2022/01/13 08:41:39;;;;;;;7.55;5.47;;;;;;;-5.74;81.88;96595.22;5058018;28;20068;-49
2022/01/13 08:44:06;;;;;;;17.83;8.30;;;;;;;-5.66;81.01;96613.34;5055436;28;20402;-51
2022/01/13 08:46:33;;;;;;;12.60;7.75;;;;;;;-5.84;79.98;96589.00;5062760;28;20498;-50
2022/01/13 08:49:00;;;;;;;7.55;3.22;;;;;;;-5.86;80.19;96613.66;5064693;28;20131;-49
2022/01/13 08:51:27;;;;;;;7.38;4.45;;;;;;;-5.89;79.61;96607.03;5058091;28;20140;-48
2022/01/13 08:53:54;;;;;;;10.40;5.93;;;;;;;-5.88;79.30;96612.94;5060019;28;20044;-50
2022/01/13 08:56:21;;;;;;;22.23;12.50;;;;;;;-5.96;79.13;96624.34;5056676;28;20691;-48
2022/01/13 08:58:48;;;;;;;20.05;10.27;;;;;;;-5.96;80.15;96586.28;5062326;28;20056;-52
2022/01/13 09:01:15;;;;;;;27.05;10.10;;;;;;;-5.88;79.93;96598.50;5067249;28;20044;-52
2022/01/13 09:03:42;;;;;;;12.55;5.47;;;;;;;-5.82;78.97;96604.97;5067281;28;20052;-50
2022/01/13 09:06:09;;;;;;;45.85;15.10;;;;;;;-5.78;78.18;96606.41;5063731;28;20067;-50
2022/01/13 09:08:36;;;;;;;13.60;7.40;;;;;;;-5.91;78.26;96602.94;5061921;28;20032;-48
2022/01/13 09:11:03;;;;;;;18.77;7.88;;;;;;;-5.77;79.03;96610.59;5064144;28;20048;-48
2022/01/13 09:13:36;;;;;;;25.63;7.40;;;;;;;-5.69;78.67;96618.63;5060953;28;20079;-48
2022/01/13 09:16:12;;;;;;;5.60;4.15;;;;;;;-5.60;78.98;96613.00;5059976;28;20544;-48
2022/01/13 09:21:38;;;;;;;6.90;4.00;;;;;;;-5.58;76.59;96620.56;5065361;28;20493;-52
2022/01/13 09:24:07;;;;;;;17.40;5.43;;;;;;;-5.64;76.10;96601.38;5076205;28;20115;-51
2022/01/13 09:26:35;;;;;;;5.90;3.67;;;;;;;-5.67;76.14;96593.97;5069423;28;20079;-49
2022/01/13 09:29:03;;;;;;;9.63;5.18;;;;;;;-5.40;76.53;96580.59;5062998;28;20044;-48
2022/01/13 09:31:31;;;;;;;5.18;3.42;;;;;;;-5.23;76.36;96590.56;5059165;28;20044;-49
2022/01/13 09:34:01;;;;;;;4.15;2.92;;;;;;;-5.36;75.33;96589.66;5061785;28;20900;-49
2022/01/13 09:36:29;;;;;;;3.88;2.10;;;;;;;-5.40;74.67;96585.66;5059466;28;20047;-49
2022/01/13 09:39:02;;;;;;;6.75;3.53;;;;;;;-5.36;74.99;96559.19;5053968;28;20041;-51
2022/01/13 09:41:32;;;;;;;3.38;2.10;;;;;;;-5.31;73.71;96577.50;5062153;28;20430;-49
2022/01/13 09:44:04;;;;;;;6.05;2.72;;;;;;;-5.36;74.76;96589.66;5062253;28;20043;-50
2022/01/13 09:46:35;;;;;;;6.80;3.17;;;;;;;-5.29;74.10;96575.69;5065766;28;20065;-48
2022/01/13 09:49:05;;;;;;;5.03;3.15;;;;;;;-5.29;75.01;96549.47;5052989;28;20053;-51
2022/01/13 09:51:33;;;;;;;8.20;2.60;;;;;;;-5.00;74.43;96565.53;5050891;28;20049;-51
2022/01/13 09:54:01;;;;;;;6.80;3.63;;;;;;;-4.94;74.64;96559.25;5057801;28;20540;-49
2022/01/13 09:56:28;;;;;;;5.35;3.67;;;;;;;-4.88;73.35;96551.25;5055701;28;20033;-50
2022/01/13 09:58:55;;;;;;;4.43;2.90;;;;;;;-4.77;74.18;96540.41;5058841;28;20040;-51
2022/01/13 10:01:22;;;;;;;6.13;3.40;;;;;;;-4.85;72.89;96534.06;5060063;28;20529;-49
2022/01/13 10:03:49;;;;;;;7.28;3.28;;;;;;;-4.94;73.65;96524.47;5087947;28;20052;-49
2022/01/13 10:06:19;;;;;;;10.75;4.75;;;;;;;-4.74;74.06;96519.91;5057123;28;20483;-51
2022/01/13 10:08:47;;;;;;;13.68;6.20;;;;;;;-4.59;73.39;96525.75;5058562;28;20141;-49
2022/01/13 10:11:34;;;;;;;8.32;3.38;;;;;;;-4.59;71.22;96516.41;5058479;28;20072;-50
2022/01/13 10:17:02;;;;;;;5.90;4.55;;;;;;;-4.36;72.70;96514.94;5058032;28;20545;-48
2022/01/13 10:19:41;;;;;;;12.07;5.35;;;;;;;-4.38;71.51;96521.06;5061624;28;20053;-48
2022/01/13 10:22:09;;;;;;;6.45;2.63;;;;;;;-4.43;71.13;96514.53;5061957;28;20440;-48
2022/01/13 10:24:41;;;;;;;5.03;2.38;;;;;;;-4.41;71.41;96501.72;5060834;28;20060;-48
2022/01/13 10:27:18;;;;;;;6.90;4.97;;;;;;;-4.55;71.42;96494.97;5063277;28;20045;-53
2022/01/13 10:29:53;;;;;;;6.72;4.20;;;;;;;-4.48;73.06;96495.41;5064485;28;20044;-50
2022/01/13 10:32:31;;;;;;;12.02;4.43;;;;;;;-4.63;71.50;96487.00;5062568;28;20044;-50
2022/01/13 10:35:06;;;;;;;6.35;3.72;;;;;;;-4.54;72.86;96481.31;5062520;28;20453;-49
2022/01/13 10:37:36;;;;;;;;;;;;;;;-4.32;70.77;96501.16;5059462;28;20037;-49
2022/01/13 10:40:10;;;;;;;5.32;3.15;;;;;;;-4.31;69.85;96484.13;5063523;28;20796;-48
2022/01/13 10:45:10;;;;;;;6.50;3.72;;;;;;;-4.28;69.52;96481.41;5058082;28;20058;-50
2022/01/13 10:47:40;;;;;;;11.68;4.40;;;;;;;-4.15;69.97;96482.25;5057408;28;20730;-53
2022/01/13 10:50:10;;;;;;;9.07;4.50;;;;;;;-4.03;69.81;96481.44;5058395;28;20047;-47
2022/01/13 10:52:38;;;;;;;13.40;5.60;;;;;;;-4.05;68.13;96460.38;5059915;28;20051;-53
2022/01/13 10:55:07;;;;;;;8.80;4.30;;;;;;;-3.81;69.30;96469.03;5057547;28;20056;-50
2022/01/13 10:57:44;;;;;;;9.75;4.80;;;;;;;-3.77;68.33;96463.63;5060980;28;20040;-51
2022/01/13 11:00:11;;;;;;;10.73;3.88;;;;;;;-3.65;68.21;96460.28;5060888;28;20122;-52
2022/01/13 11:02:38;;;;;;;21.30;4.82;;;;;;;-3.67;70.25;96466.41;5059096;28;20048;-49
2022/01/13 11:05:08;;;;;;;15.35;4.65;;;;;;;-3.68;68.50;96473.19;5053228;28;20116;-54
2022/01/13 11:07:35;;;;;;;12.77;5.20;;;;;;;-3.48;69.20;96481.25;5056997;28;20048;-51
2022/01/13 11:10:06;;;;;;;7.07;4.18;;;;;;;-3.50;67.22;96472.91;5061850;28;20155;-50
2022/01/13 11:12:39;;;;;;;9.52;4.45;;;;;;;-3.69;67.83;96463.94;5063603;28;20055;-50
2022/01/13 11:15:12;;;;;;;11.35;4.18;;;;;;;-3.50;68.32;96462.72;5061526;28;20528;-51
2022/01/13 11:17:43;;;;;;;8.57;3.15;;;;;;;-3.44;69.06;96472.47;5062614;28;20632;-51
2022/01/13 11:20:13;;;;;;;6.65;3.72;;;;;;;-3.66;69.09;96448.44;5060061;28;20052;-53
2022/01/13 11:22:44;;;;;;;13.35;4.78;;;;;;;-3.50;69.04;96457.63;5062061;28;20453;-50
2022/01/13 11:25:15;;;;;;;7.43;3.65;;;;;;;-3.53;68.83;96458.66;5062088;28;20045;-53
2022/01/13 11:27:43;;;;;;;7.00;3.28;;;;;;;-3.35;69.65;96446.41;5062811;28;20060;-50
2022/01/13 11:30:13;;;;;;;10.48;4.72;;;;;;;-3.32;68.28;96456.34;5060282;28;20052;-51
2022/01/13 11:32:43;;;;;;;7.63;2.75;;;;;;;-3.51;70.40;96450.88;5062015;28;20047;-51
2022/01/13 11:35:12;;;;;;;9.27;3.95;;;;;;;-3.39;69.27;96439.84;5063397;28;20513;-50
2022/01/13 11:37:40;;;;;;;9.80;3.78;;;;;;;-3.43;68.13;96442.72;5060268;28;20040;-50
2022/01/13 11:40:27;;;;;;;7.20;3.33;;;;;;;-3.31;67.48;96447.00;5055124;28;20048;-51
2022/01/13 11:42:59;;;;;;;6.07;3.00;;;;;;;-3.40;66.96;96435.69;5058337;28;20045;-50
2022/01/13 11:45:27;;;;;;;5.15;3.95;;;;;;;-3.18;69.82;96421.47;5057284;28;20048;-54
2022/01/13 11:48:14;;;;;;;9.88;3.55;;;;;;;-3.00;68.35;96440.56;5059709;28;20044;-54
2022/01/13 11:50:53;;;;;;;10.10;5.22;;;;;;;-2.85;69.71;96435.31;5060276;28;20438;-50
2022/01/13 11:53:26;;;;;;;6.70;3.25;;;;;;;-2.80;67.62;96435.81;5060923;28;20480;-53
2022/01/13 11:55:55;;;;;;;11.10;4.63;;;;;;;-2.64;67.54;96450.84;5059484;28;20070;-50
2022/01/13 11:58:45;;;;;;;6.63;3.42;;;;;;;-2.93;66.42;96461.38;5057398;28;20044;-51
2022/01/13 12:01:26;;;;;;;6.63;3.20;;;;;;;-2.80;65.48;96466.41;5058476;28;20052;-50
2022/01/13 12:04:04;;;;;;;8.05;4.32;;;;;;;-2.61;65.98;96460.81;5060433;28;20048;-51
2022/01/13 12:06:32;;;;;;;14.73;6.45;;;;;;;-2.48;66.46;96450.53;5054792;28;20071;-50
2022/01/13 12:08:59;;;;;;;5.13;2.97;;;;;;;-2.45;64.53;96440.13;5060327;28;20040;-50
2022/01/13 12:11:46;;;;;;;12.75;5.60;;;;;;;-2.26;66.25;96432.78;5057700;28;20076;-50
2022/01/13 12:14:34;;;;;;;14.20;6.03;;;;;;;-2.51;67.02;96416.69;5058263;28;20049;-54
2022/01/13 12:17:11;;;;;;;6.43;2.80;;;;;;;-2.50;64.97;96403.00;5059850;28;20040;-51
2022/01/13 12:19:44;;;;;;;10.30;4.85;;;;;;;-2.53;65.55;96399.88;5056578;28;20136;-51